Hovedside
METAR-TAF:

METAR-TAF

Lufthavner :

Ørland hovedflystasjon

Ørland, Norge

breddegrad: 63-42N, lengdegrad: 009-36E, høyde over havet: 0 m

Gjeldene værobservasjon

Denne rapporten ble laget for 1 time og 6 minutter siden, klokken 19:20 UTC
Vind 10 kt fra Sørøst
Temperatur 1°C
Luftfuktighet 80%
Trykk 1011 hPa
Sikt 10 km eller mer
Få skyer i en høyde av 4000 ft

METAR: ENOL 141920Z 13010KT 9999 FEW040 01/M02 Q1011 NOSIG

Tid: 21:26 (20:26 UTC)

Varsel

Varsel gyldig fra 14. klokken 18 UTC til 15. klokken 18 UTC
Vind 8 kt fra Sørøst
Sikt 10 km eller mer
Få skyer i en høyde av 3000 ft
Blir
fra 15. klokken 03 UTC til 15. klokken 06 UTC
Vind 12 kt fra Sørvest
Midlertidig
fra 15. klokken 06 UTC til 15. klokken 16 UTC
Vind 15 kt fra Vest-sørvest med vindkast opp mot 25 kt
Sikt: 4000 m
Spredte skyer i en høyde av 1400 ft, Bygeskyer.
Brutte skyer i en høyde av 2000 ft
regnbyger, snø

TAF: ENOL 1418/1518 14008KT 9999 FEW030 BECMG 1503/1506 23012KT TEMPO 1506/1516 24015G25KT 4000 SHRASN SCT014CB BKN020

Værobservasjoner og værvarsel for over 4000 flyplasser (METAR- og TAF-rapporter).

Tilgjengelige stasjoner er representert av de røde og gule prikkene på kartet.

Hold musepekeren over prikken for å se navnet på stasjonen.

Klikk så for å se værobservasjoner og -varsler.

For å forandre kartet kan du klikke på den grønne knappen med svart kryss for å zoome inn, på den grønne knappen med strek for å zoome ut, eller på de grønne pilene for å se tilstøtende kart.


METAR-TAF: